Time;durP1;ratioP1;P1;durP2;ratioP2;P2;SDS_P1;SDS_P2;PMS_P1;PMS_P2;Temp;Humidity;BMP_temperature;BMP_pressure;BME280_temperature;BME280_humidity;BME280_pressure;Samples;Min_cycle;Max_cycle;Signal;HPM_P1;HPM_P2
2019/07/06 00:00:05;;;;;;;5.4;4.1;;;;;;;20.68;58.11426;959.3778;;;;
2019/07/06 00:02:30;;;;;;;6.8;4.3;;;;;;;20.73;58.01367;959.3239;;;;
2019/07/06 00:04:55;;;;;;;6.7;4.2;;;;;;;20.76;58.20703;959.2751;;;;
2019/07/06 00:07:20;;;;;;;7.1;4.5;;;;;;;20.76;58.01758;959.212;;;;
2019/07/06 00:09:45;;;;;;;7.8;4.2;;;;;;;20.8;58.37695;959.2438;;;;
2019/07/06 00:12:11;;;;;;;5.9;3.9;;;;;;;20.81;58.03613;959.2227;;;;
2019/07/06 00:14:36;;;;;;;6.4;3.9;;;;;;;20.78;58.88086;959.2075;;;;
2019/07/06 00:17:02;;;;;;;4.9;3.8;;;;;;;20.79;59.12793;959.1742;;;;
2019/07/06 00:19:27;;;;;;;7.4;4.1;;;;;;;20.65;58.34473;959.2625;;;;
2019/07/06 00:22:33;;;;;;;5.3;3.6;;;;;;;20.61;58.83594;959.2203;;;;
2019/07/06 00:24:17;;;;;;;6.6;3.6;;;;;;;20.62;58.75293;959.2647;;;;
2019/07/06 00:26:42;;;;;;;5.4;3.2;;;;;;;20.65;58.05078;959.2401;;;;
2019/07/06 00:29:07;;;;;;;7.1;3.4;;;;;;;20.61;58.9043;959.1929;;;;
2019/07/06 00:31:32;;;;;;;7.2;3.2;;;;;;;20.65;57.40234;959.241;;;;
2019/07/06 00:33:57;;;;;;;7.6;3.1;;;;;;;20.61;58.25684;959.2343;;;;
2019/07/06 00:36:23;;;;;;;4.3;3.1;;;;;;;20.57;58.52344;959.1895;;;;
2019/07/06 00:38:48;;;;;;;6.2;3.3;;;;;;;20.64;58.19043;959.1044;;;;
2019/07/06 00:41:13;;;;;;;4.2;3.5;;;;;;;20.66;59.51172;959.0868;;;;
2019/07/06 00:43:38;;;;;;;7.5;3.7;;;;;;;20.63;59.60352;959.0358;;;;
2019/07/06 00:46:03;;;;;;;6.8;3.7;;;;;;;20.58;61.37305;959.0594;;;;
2019/07/06 00:48:29;;;;;;;4.6;3.5;;;;;;;20.53;61.17871;959.0465;;;;
2019/07/06 00:50:54;;;;;;;5.9;3.9;;;;;;;20.44;61.8252;959.0851;;;;
2019/07/06 00:53:20;;;;;;;6.5;4.1;;;;;;;20.43;61.71875;959.0374;;;;
2019/07/06 00:55:45;;;;;;;6.5;4.1;;;;;;;20.5;61.43457;958.9788;;;;
2019/07/06 00:58:10;;;;;;;8.1;4.1;;;;;;;20.42;63;958.9397;;;;
2019/07/06 01:00:41;;;;;;;6.2;4.2;;;;;;;20.4;61.75;958.9163;;;;
2019/07/06 01:03:08;;;;;;;5.9;4.2;;;;;;;20.33;62.75098;958.8706;;;;
2019/07/06 01:05:25;;;;;;;8.6;4.5;;;;;;;20.23;63.25586;958.8708;;;;
2019/07/06 01:07:51;;;;;;;7.2;4.6;;;;;;;20.24;63.18652;958.8722;;;;
2019/07/06 01:10:16;;;;;;;7.5;4.8;;;;;;;20.35;61.81348;958.8486;;;;
2019/07/06 01:12:41;;;;;;;6.9;4.4;;;;;;;20.29;62.68848;958.7703;;;;
2019/07/06 01:15:06;;;;;;;8.2;4.5;;;;;;;20.19;63.50781;958.6913;;;;
2019/07/06 01:17:31;;;;;;;8.5;3.9;;;;;;;20.1;63.50684;958.644;;;;
2019/07/06 01:19:56;;;;;;;7.6;4.3;;;;;;;20.08;64.01074;958.6429;;;;
2019/07/06 01:22:21;;;;;;;6.2;4;;;;;;;20;64.43359;958.627;;;;
2019/07/06 01:24:46;;;;;;;6.5;4.2;;;;;;;19.82;65.19531;958.6611;;;;
2019/07/06 01:27:12;;;;;;;8.2;4.4;;;;;;;19.67;65.72559;958.654;;;;
2019/07/06 01:29:37;;;;;;;7.8;4.9;;;;;;;19.8;64.75684;958.5953;;;;
2019/07/06 01:32:02;;;;;;;8.9;4.7;;;;;;;19.72;65.41406;958.53;;;;
2019/07/06 01:34:27;;;;;;;10.2;5;;;;;;;19.63;65.68359;958.533;;;;
2019/07/06 01:36:52;;;;;;;10.2;5;;;;;;;19.68;64.65723;958.5165;;;;
2019/07/06 01:39:18;;;;;;;8.2;5;;;;;;;19.68;65.37402;958.5106;;;;
2019/07/06 01:41:43;;;;;;;5;4.3;;;;;;;19.71;65.55469;958.4372;;;;
2019/07/06 01:44:08;;;;;;;7.8;5;;;;;;;19.63;64.32031;958.4048;;;;
2019/07/06 01:46:33;;;;;;;9.6;5.2;;;;;;;19.68;64.13965;958.4214;;;;
2019/07/06 01:48:59;;;;;;;5.8;4.4;;;;;;;19.83;63.98535;958.3929;;;;
2019/07/06 01:51:24;;;;;;;7.9;4.7;;;;;;;19.66;64.31348;958.3432;;;;
2019/07/06 01:53:49;;;;;;;8.3;4.6;;;;;;;19.66;64.14941;958.3275;;;;
2019/07/06 01:56:14;;;;;;;10.3;4.7;;;;;;;19.61;64.96484;958.2883;;;;
2019/07/06 01:58:40;;;;;;;10.5;4.9;;;;;;;19.55;64.7793;958.2564;;;;
2019/07/06 02:01:05;;;;;;;7.5;4.6;;;;;;;19.55;64.36816;958.2531;;;;
2019/07/06 02:03:30;;;;;;;10;5.1;;;;;;;19.56;64.8623;958.2256;;;;
2019/07/06 02:05:55;;;;;;;7.7;4.8;;;;;;;19.44;66.09082;958.2798;;;;
2019/07/06 02:08:20;;;;;;;7.7;4.9;;;;;;;19.45;65.46875;958.2136;;;;
2019/07/06 02:10:45;;;;;;;12.4;5.3;;;;;;;19.56;64.73242;958.2033;;;;
2019/07/06 02:13:10;;;;;;;10.6;4.9;;;;;;;19.66;63.5498;958.1481;;;;
2019/07/06 02:15:36;;;;;;;8.5;4.9;;;;;;;19.56;63.93359;958.1331;;;;
2019/07/06 02:18:01;;;;;;;7.5;5.1;;;;;;;19.48;64.52148;958.0959;;;;
2019/07/06 02:20:26;;;;;;;10;5.4;;;;;;;19.46;63.95508;958.116;;;;
2019/07/06 02:22:51;;;;;;;8.8;4.9;;;;;;;19.48;63.81641;958.1008;;;;
2019/07/06 02:25:16;;;;;;;7.1;5;;;;;;;19.44;63.4707;958.113;;;;
2019/07/06 02:27:42;;;;;;;7.4;5;;;;;;;19.26;64.34863;958.1069;;;;
2019/07/06 02:30:07;;;;;;;7.9;4.7;;;;;;;19.33;63.62988;958.0647;;;;
2019/07/06 02:32:32;;;;;;;6.3;4.5;;;;;;;19.33;63.29199;958.1563;;;;
2019/07/06 02:34:57;;;;;;;9.2;4.9;;;;;;;19.28;63.2832;958.1158;;;;
2019/07/06 02:37:22;;;;;;;10.4;4.5;;;;;;;19.33;62.99609;958.116;;;;
2019/07/06 02:39:47;;;;;;;7.1;4.6;;;;;;;19.18;63.86914;958.0985;;;;
2019/07/06 02:42:13;;;;;;;8.7;4.6;;;;;;;19.12;63.74121;958.0475;;;;
2019/07/06 02:44:38;;;;;;;6.8;4.7;;;;;;;19.17;63.29102;958.0588;;;;
2019/07/06 02:47:03;;;;;;;7.4;4.4;;;;;;;19.14;63.08691;958.0421;;;;
2019/07/06 02:49:29;;;;;;;7.7;4.5;;;;;;;19.13;63.7207;958.0795;;;;
2019/07/06 02:51:54;;;;;;;6.8;4.5;;;;;;;19.14;62.80566;958.0477;;;;
2019/07/06 02:54:19;;;;;;;8.3;4.6;;;;;;;19.16;63.20801;958.0179;;;;
2019/07/06 02:56:44;;;;;;;8.8;4.5;;;;;;;19.1;64.05566;958.0048;;;;
2019/07/06 02:59:09;;;;;;;8.9;4.7;;;;;;;19.11;63.24707;957.9434;;;;
2019/07/06 03:01:34;;;;;;;5.6;4.4;;;;;;;19.05;63.97852;957.9445;;;;
2019/07/06 03:04:00;;;;;;;7.7;4.2;;;;;;;18.96;63.77734;957.8864;;;;
2019/07/06 03:06:25;;;;;;;9.5;4.8;;;;;;;18.93;64.18359;957.8969;;;;
2019/07/06 03:08:50;;;;;;;8.1;4.7;;;;;;;18.97;63.95508;957.9105;;;;
2019/07/06 03:11:15;;;;;;;6.9;4.7;;;;;;;18.84;64.4043;957.8917;;;;
2019/07/06 03:13:40;;;;;;;7.6;4.5;;;;;;;18.8;64.08301;957.8287;;;;
2019/07/06 03:16:05;;;;;;;9.8;4.7;;;;;;;18.74;64.64844;957.8323;;;;
2019/07/06 03:18:30;;;;;;;6;4.6;;;;;;;18.62;64.96973;957.7942;;;;
2019/07/06 03:20:55;;;;;;;7.7;4.8;;;;;;;18.52;65.03906;957.8469;;;;
2019/07/06 03:23:20;;;;;;;6.3;4.8;;;;;;;18.59;64.47363;957.8162;;;;
2019/07/06 03:25:46;;;;;;;6.7;4.5;;;;;;;18.55;64.87695;957.8136;;;;
2019/07/06 03:28:11;;;;;;;8.6;4.5;;;;;;;18.5;63.99316;957.7745;;;;
2019/07/06 03:30:36;;;;;;;8.5;4.7;;;;;;;18.51;64.83691;957.7883;;;;
2019/07/06 03:33:01;;;;;;;8.1;4.8;;;;;;;18.54;63.86914;957.7349;;;;
2019/07/06 03:35:26;;;;;;;9;5;;;;;;;18.53;62.90527;957.7594;;;;
2019/07/06 03:37:52;;;;;;;10.3;4.6;;;;;;;18.49;63.41602;957.764;;;;
2019/07/06 03:40:17;;;;;;;10;4.7;;;;;;;18.45;63.80957;957.7644;;;;
2019/07/06 03:42:42;;;;;;;7.6;4.6;;;;;;;18.45;64.05566;957.7307;;;;
2019/07/06 03:45:08;;;;;;;8.4;4.5;;;;;;;18.46;63.85742;957.7372;;;;
2019/07/06 03:47:33;;;;;;;10.6;4.8;;;;;;;18.45;64.27734;957.8058;;;;
2019/07/06 03:49:58;;;;;;;9.9;4.4;;;;;;;18.48;62.65332;957.7838;;;;
2019/07/06 03:52:23;;;;;;;8.5;4.5;;;;;;;18.42;63.80566;957.7764;;;;
2019/07/06 03:54:49;;;;;;;8;4.5;;;;;;;18.63;61.7959;957.7527;;;;
2019/07/06 03:57:14;;;;;;;8.6;4.8;;;;;;;18.42;62.67969;957.7344;;;;
2019/07/06 03:59:39;;;;;;;6.9;4.2;;;;;;;18.47;62.15918;957.7511;;;;
2019/07/06 04:02:28;;;;;;;7.8;4.4;;;;;;;18.48;61.28223;957.7095;;;;
2019/07/06 04:04:53;;;;;;;7.8;4.5;;;;;;;18.53;61.3125;957.6873;;;;
2019/07/06 04:07:19;;;;;;;6.8;4.1;;;;;;;18.49;61.59961;957.7128;;;;
2019/07/06 04:09:45;;;;;;;7.1;3.9;;;;;;;18.48;61.03613;957.7129;;;;
2019/07/06 04:12:10;;;;;;;10.8;4.1;;;;;;;18.47;61.92676;957.7137;;;;
2019/07/06 04:14:35;;;;;;;4.9;3.6;;;;;;;18.52;60.65527;957.7115;;;;
2019/07/06 04:17:00;;;;;;;7.2;3.5;;;;;;;18.37;62.34473;957.7187;;;;
2019/07/06 04:19:25;;;;;;;8;3.9;;;;;;;18.41;62.05664;957.7339;;;;
2019/07/06 04:21:50;;;;;;;7.9;3.6;;;;;;;18.38;61.6084;957.7127;;;;
2019/07/06 04:24:15;;;;;;;6.3;3.6;;;;;;;18.36;62.33105;957.764;;;;
2019/07/06 04:26:41;;;;;;;6;3.7;;;;;;;18.41;62.70117;957.7668;;;;
2019/07/06 04:29:06;;;;;;;5.6;3.7;;;;;;;18.42;61.80176;957.8167;;;;
2019/07/06 04:31:31;;;;;;;6.6;3.7;;;;;;;18.48;62.66504;957.7838;;;;
2019/07/06 04:33:56;;;;;;;4.8;3.3;;;;;;;18.5;63.20605;957.7457;;;;
2019/07/06 04:36:21;;;;;;;4.6;3.5;;;;;;;18.44;64.30078;957.7175;;;;
2019/07/06 04:38:46;;;;;;;6.5;3.5;;;;;;;18.43;63.98242;957.6815;;;;
2019/07/06 04:41:11;;;;;;;7;3.8;;;;;;;18.46;63.97363;957.6844;;;;
2019/07/06 04:43:36;;;;;;;5.4;3.6;;;;;;;18.52;62.85742;957.6998;;;;
2019/07/06 04:46:01;;;;;;;6;3.5;;;;;;;18.56;63.18066;957.6853;;;;
2019/07/06 04:48:26;;;;;;;8.2;3.9;;;;;;;18.54;64.30273;957.6805;;;;
2019/07/06 04:50:51;;;;;;;7.6;3.9;;;;;;;18.48;63.86035;957.7203;;;;
2019/07/06 04:53:16;;;;;;;8.2;3.9;;;;;;;18.47;64.90332;957.7336;;;;
2019/07/06 04:55:41;;;;;;;7.8;3.9;;;;;;;18.48;64.96191;957.6848;;;;
2019/07/06 04:58:06;;;;;;;6.5;3.7;;;;;;;18.58;63.81738;957.6875;;;;
2019/07/06 05:00:31;;;;;;;6.6;3.9;;;;;;;18.59;64.56836;957.6913;;;;
2019/07/06 05:02:56;;;;;;;7.4;3.8;;;;;;;18.52;65.66992;957.7224;;;;
2019/07/06 05:05:22;;;;;;;6;4.2;;;;;;;18.67;64.4502;957.7629;;;;
2019/07/06 05:07:47;;;;;;;5.4;3.9;;;;;;;18.71;63.8584;957.7169;;;;
2019/07/06 05:10:12;;;;;;;7.8;4;;;;;;;18.73;63.75488;957.7068;;;;
2019/07/06 05:12:37;;;;;;;6.5;4.1;;;;;;;18.8;64.1875;957.6356;;;;
2019/07/06 05:15:02;;;;;;;5.4;3.5;;;;;;;18.85;63.30371;957.6273;;;;
2019/07/06 05:17:27;;;;;;;5.9;4;;;;;;;18.83;63.58203;957.6409;;;;
2019/07/06 05:19:52;;;;;;;7.5;3.7;;;;;;;18.86;62.20215;957.6001;;;;
2019/07/06 05:22:17;;;;;;;8.4;4.1;;;;;;;18.88;63.02539;957.6469;;;;
2019/07/06 05:24:43;;;;;;;5.4;3.7;;;;;;;18.85;63.84277;957.6373;;;;
2019/07/06 05:27:08;;;;;;;6.6;3.8;;;;;;;18.79;64.31641;957.64;;;;
2019/07/06 05:29:33;;;;;;;6.2;3.5;;;;;;;18.93;62.88184;957.6558;;;;
2019/07/06 05:31:58;;;;;;;6.1;3.8;;;;;;;19.13;62.51172;957.6481;;;;
2019/07/06 05:34:23;;;;;;;6;3.6;;;;;;;19.27;62.47266;957.611;;;;
2019/07/06 05:36:48;;;;;;;4.5;3.3;;;;;;;19.26;64.0332;957.6747;;;;
2019/07/06 05:39:13;;;;;;;4;2.8;;;;;;;19.65;58.53125;957.5942;;;;
2019/07/06 05:41:38;;;;;;;6.9;3.3;;;;;;;19.68;58.38184;957.606;;;;
2019/07/06 05:44:03;;;;;;;6.7;4.5;;;;;;;19.79;57.62012;957.641;;;;
2019/07/06 05:46:28;;;;;;;8.3;5.4;;;;;;;19.8;57.41113;957.6252;;;;
2019/07/06 05:48:54;;;;;;;5.6;3.6;;;;;;;19.83;58.47363;957.6279;;;;
2019/07/06 05:51:19;;;;;;;8.4;4.3;;;;;;;19.92;57.9668;957.5381;;;;
2019/07/06 05:53:44;;;;;;;6.7;4.2;;;;;;;19.94;56.85254;957.5775;;;;
2019/07/06 05:56:09;;;;;;;7;3.3;;;;;;;20.09;56.31738;957.5895;;;;
2019/07/06 05:58:34;;;;;;;11.1;3.5;;;;;;;20.17;55.64648;957.5867;;;;
2019/07/06 06:00:59;;;;;;;6.8;3;;;;;;;20.32;55.18359;957.5967;;;;
2019/07/06 06:03:24;;;;;;;5.4;3.3;;;;;;;20.5;53.99219;957.6102;;;;
2019/07/06 06:05:49;;;;;;;3.6;3;;;;;;;20.5;54.08594;957.6019;;;;
2019/07/06 06:08:14;;;;;;;6.7;3.2;;;;;;;20.57;54.05957;957.5591;;;;
2019/07/06 06:10:39;;;;;;;4.4;3.1;;;;;;;20.77;53.37695;957.5844;;;;
2019/07/06 06:13:04;;;;;;;6.6;3.2;;;;;;;20.79;52.95605;957.5789;;;;
2019/07/06 06:15:30;;;;;;;5;2.7;;;;;;;20.93;53.56152;957.5563;;;;
2019/07/06 06:17:55;;;;;;;3.8;2.6;;;;;;;21.03;52.80762;957.5711;;;;
2019/07/06 06:20:20;;;;;;;4.4;2.8;;;;;;;21.07;53.55469;957.5817;;;;
2019/07/06 06:22:45;;;;;;;3.7;3.1;;;;;;;21.26;51.7041;957.5734;;;;
2019/07/06 06:25:10;;;;;;;3.4;2.8;;;;;;;21.26;51.86914;957.5742;;;;
2019/07/06 06:27:35;;;;;;;4.5;2.9;;;;;;;21.41;51.87402;957.6063;;;;
2019/07/06 06:30:02;;;;;;;4.9;2.8;;;;;;;21.49;51.57617;957.644;;;;
2019/07/06 06:32:25;;;;;;;4.8;3;;;;;;;21.48;51.94141;957.598;;;;
2019/07/06 06:34:50;;;;;;;4.7;3.8;;;;;;;21.68;50.65527;957.5508;;;;
2019/07/06 06:37:15;;;;;;;6.4;4.2;;;;;;;21.71;50.75293;957.5675;;;;
2019/07/06 06:39:40;;;;;;;5.6;3.3;;;;;;;21.8;51.02246;957.5648;;;;
2019/07/06 06:42:05;;;;;;;6.2;3.7;;;;;;;22.1;50.47852;957.5403;;;;
2019/07/06 06:44:30;;;;;;;4.1;2.9;;;;;;;22.11;51.15234;957.5338;;;;
2019/07/06 06:46:56;;;;;;;4.8;3.1;;;;;;;22.25;50.43555;957.6275;;;;
2019/07/06 06:49:21;;;;;;;5.8;3.6;;;;;;;22.25;50.81445;957.6152;;;;
2019/07/06 06:51:46;;;;;;;6.6;3.4;;;;;;;22.37;50.36621;957.6275;;;;
2019/07/06 06:54:11;;;;;;;6.7;3.5;;;;;;;22.59;49.74121;957.6167;;;;
2019/07/06 06:56:36;;;;;;;4.8;3.4;;;;;;;22.65;49.74805;957.6554;;;;
2019/07/06 06:59:01;;;;;;;4.9;3.2;;;;;;;22.77;49.19336;957.6783;;;;
2019/07/06 07:01:26;;;;;;;6.1;3.6;;;;;;;22.79;49.01758;957.6451;;;;
2019/07/06 07:03:51;;;;;;;6.2;3.3;;;;;;;22.91;49.19727;957.6238;;;;
2019/07/06 07:06:16;;;;;;;6.6;4.3;;;;;;;22.82;49.8252;957.6351;;;;
2019/07/06 07:08:41;;;;;;;3.8;3.4;;;;;;;22.78;50.14063;957.5549;;;;
2019/07/06 07:11:06;;;;;;;4.8;3.8;;;;;;;22.64;50.08887;957.5101;;;;
2019/07/06 07:13:35;;;;;;;5.5;4.6;;;;;;;22.8;50.08398;957.522;;;;
2019/07/06 07:16:00;;;;;;;5.1;3.9;;;;;;;22.88;49.79785;957.5325;;;;
2019/07/06 07:18:25;;;;;;;6.2;3.7;;;;;;;22.97;49.07324;957.5073;;;;
2019/07/06 07:20:50;;;;;;;6.3;3.5;;;;;;;22.92;49.00879;957.4604;;;;
2019/07/06 07:23:15;;;;;;;6.8;3.8;;;;;;;22.96;49.20313;957.4478;;;;
2019/07/06 07:25:40;;;;;;;6.6;3.5;;;;;;;23.08;49.39355;957.4329;;;;
2019/07/06 07:28:05;;;;;;;6.2;3.4;;;;;;;23.19;48.9541;957.4296;;;;
2019/07/06 07:30:30;;;;;;;5;3.4;;;;;;;23.15;49.70801;957.4339;;;;
2019/07/06 07:32:56;;;;;;;6.2;3.2;;;;;;;23.33;49.05273;957.3663;;;;
2019/07/06 07:35:21;;;;;;;6.3;3.3;;;;;;;23.4;49.42871;957.3483;;;;
2019/07/06 07:37:46;;;;;;;6.2;3.1;;;;;;;23.52;48.70605;957.3508;;;;
2019/07/06 07:40:11;;;;;;;4.8;3.3;;;;;;;23.55;48.60254;957.3064;;;;
2019/07/06 07:42:36;;;;;;;6;3.9;;;;;;;23.66;48.37891;957.2673;;;;
2019/07/06 07:45:01;;;;;;;6.2;3.3;;;;;;;23.73;47.70996;957.2609;;;;
2019/07/06 07:47:27;;;;;;;5.2;3.4;;;;;;;23.79;47.96582;957.2814;;;;
2019/07/06 07:49:52;;;;;;;6.4;3.6;;;;;;;23.82;46.67578;957.2584;;;;
2019/07/06 07:52:17;;;;;;;4.7;4;;;;;;;23.86;46.77539;957.2578;;;;
2019/07/06 07:54:42;;;;;;;4.1;2.9;;;;;;;24.02;46.22168;957.2651;;;;
2019/07/06 07:57:07;;;;;;;4;2.9;;;;;;;24;45.09277;957.1978;;;;
2019/07/06 07:59:32;;;;;;;4;3;;;;;;;24.04;45.39258;957.2161;;;;
2019/07/06 08:01:57;;;;;;;3.9;2.7;;;;;;;24.19;43.87695;957.2054;;;;
2019/07/06 08:04:22;;;;;;;6.8;2.9;;;;;;;24.25;44.70215;957.1747;;;;
2019/07/06 08:06:47;;;;;;;4.6;3.4;;;;;;;24.38;45.14258;957.1774;;;;
2019/07/06 08:09:13;;;;;;;4.1;2.9;;;;;;;24.4;46.05859;957.1557;;;;
2019/07/06 08:11:38;;;;;;;3.5;3;;;;;;;24.53;44.9209;957.13;;;;
2019/07/06 08:14:03;;;;;;;4;2.5;;;;;;;24.74;45.46484;957.1566;;;;
2019/07/06 08:16:28;;;;;;;6.2;3.1;;;;;;;24.56;44.60254;957.233;;;;
2019/07/06 08:18:53;;;;;;;6;2.9;;;;;;;24.52;44.11133;957.1981;;;;
2019/07/06 08:21:18;;;;;;;4.9;2.8;;;;;;;24.47;45.0459;957.1865;;;;
2019/07/06 08:23:43;;;;;;;3.9;3.3;;;;;;;24.81;44.69922;957.1431;;;;
2019/07/06 08:26:08;;;;;;;5.5;2.8;;;;;;;24.82;44.03418;957.1414;;;;
2019/07/06 08:28:33;;;;;;;5.8;2.7;;;;;;;24.84;44.26172;957.0851;;;;
2019/07/06 08:30:59;;;;;;;3.1;2.3;;;;;;;24.98;43.18164;957.0751;;;;
2019/07/06 08:33:24;;;;;;;3;2.5;;;;;;;25.12;42.91016;957.0913;;;;
2019/07/06 08:35:49;;;;;;;3.6;2.5;;;;;;;25.41;42.44922;957.1331;;;;
2019/07/06 08:38:14;;;;;;;4.2;2.5;;;;;;;25.44;41.55957;957.1223;;;;
2019/07/06 08:40:39;;;;;;;5.2;2.5;;;;;;;25.71;40.44238;957.1671;;;;
2019/07/06 08:43:04;;;;;;;3.2;2.2;;;;;;;25.63;41.375;957.1506;;;;
2019/07/06 08:45:29;;;;;;;4.2;2.3;;;;;;;25.54;41.23535;957.1353;;;;
2019/07/06 08:47:54;;;;;;;5.7;3.1;;;;;;;25.41;42.02148;957.1453;;;;
2019/07/06 08:50:20;;;;;;;4;2.6;;;;;;;25.34;41.91895;957.1512;;;;
2019/07/06 08:52:45;;;;;;;5.5;3.3;;;;;;;25.41;41.27051;957.1666;;;;
2019/07/06 08:55:10;;;;;;;5;2.8;;;;;;;25.52;41.41211;957.1665;;;;
2019/07/06 08:57:35;;;;;;;4.2;2.4;;;;;;;25.42;41.80762;957.1608;;;;
2019/07/06 09:00:01;;;;;;;5.6;3.1;;;;;;;25.72;41.09668;957.1995;;;;
2019/07/06 09:02:26;;;;;;;4.1;2.5;;;;;;;25.86;41.43164;957.1961;;;;
2019/07/06 09:04:51;;;;;;;4.1;2.4;;;;;;;25.92;41.22363;957.183;;;;
2019/07/06 09:07:16;;;;;;;6.7;2.5;;;;;;;25.95;42.29883;957.228;;;;
2019/07/06 09:09:41;;;;;;;4.4;2.7;;;;;;;25.82;41.98828;957.2188;;;;
2019/07/06 09:12:06;;;;;;;5.4;2.6;;;;;;;25.84;42.24023;957.2511;;;;
2019/07/06 09:14:32;;;;;;;4.3;2.7;;;;;;;26.02;41.64941;957.1769;;;;
2019/07/06 09:16:57;;;;;;;4.3;2.6;;;;;;;25.95;42.44141;957.1779;;;;
2019/07/06 09:19:22;;;;;;;7.6;2.7;;;;;;;26.24;41.07324;957.2257;;;;
2019/07/06 09:21:47;;;;;;;6;3.1;;;;;;;25.99;42.38477;957.1683;;;;
2019/07/06 09:24:12;;;;;;;4.2;3;;;;;;;26.1;42.16992;957.113;;;;
2019/07/06 09:26:38;;;;;;;13.2;4.7;;;;;;;26.21;42.75098;957.1085;;;;
2019/07/06 09:29:03;;;;;;;19.5;6.4;;;;;;;26.3;45.44434;957.0948;;;;
2019/07/06 09:31:28;;;;;;;14.8;5.6;;;;;;;26.49;42.73047;957.0884;;;;
2019/07/06 09:33:53;;;;;;;7.7;3.3;;;;;;;26.6;42.8252;957.1312;;;;
2019/07/06 09:36:18;;;;;;;8.9;3.2;;;;;;;26.54;41.44727;957.0944;;;;
2019/07/06 09:38:43;;;;;;;5.8;2.5;;;;;;;26.51;42.50684;957.1267;;;;
2019/07/06 09:41:18;;;;;;;5.2;2.6;;;;;;;26.47;40.89063;957.0977;;;;
2019/07/06 09:43:43;;;;;;;4.1;2.7;;;;;;;26.63;40.69141;957.1121;;;;
2019/07/06 09:46:09;;;;;;;4.8;2.5;;;;;;;26.66;39.75098;957.0999;;;;
2019/07/06 09:48:34;;;;;;;7;2.7;;;;;;;26.59;42.27539;957.1097;;;;
2019/07/06 09:50:59;;;;;;;5.3;2.7;;;;;;;26.48;40.84473;957.18;;;;
2019/07/06 09:53:24;;;;;;;5.4;2.4;;;;;;;26.62;40.70215;957.119;;;;
2019/07/06 09:55:49;;;;;;;5.9;2.5;;;;;;;26.62;40.98926;957.1458;;;;
2019/07/06 09:58:14;;;;;;;5.6;2.8;;;;;;;26.78;39.23633;957.1005;;;;
2019/07/06 10:00:39;;;;;;;2.6;2.2;;;;;;;26.86;37.84668;957.1223;;;;
2019/07/06 10:03:05;;;;;;;3.7;2.1;;;;;;;26.81;37.00586;957.134;;;;
2019/07/06 10:05:29;;;;;;;4.4;2.1;;;;;;;26.84;37.62988;957.1065;;;;
2019/07/06 10:07:54;;;;;;;3.7;1.9;;;;;;;26.87;37.20215;957.0902;;;;
2019/07/06 10:10:20;;;;;;;6.3;1.9;;;;;;;27.03;37.12012;957.0418;;;;
2019/07/06 10:12:45;;;;;;;5.2;1.9;;;;;;;27.14;36.35156;956.9682;;;;
2019/07/06 10:15:11;;;;;;;3.8;1.9;;;;;;;27.31;35.78027;956.9838;;;;
2019/07/06 10:17:36;;;;;;;6;2;;;;;;;27.33;35.36328;956.9619;;;;
2019/07/06 10:20:01;;;;;;;3.9;1.8;;;;;;;27.46;36.6416;956.9451;;;;
2019/07/06 10:22:26;;;;;;;4.8;2.1;;;;;;;27.68;36.22852;956.8848;;;;
2019/07/06 10:24:51;;;;;;;3.1;1.8;;;;;;;27.45;36.44824;956.868;;;;
2019/07/06 10:27:16;;;;;;;4.6;2.1;;;;;;;27.74;36.4248;956.7922;;;;
2019/07/06 10:29:41;;;;;;;4.2;1.8;;;;;;;27.69;35.15137;956.8169;;;;
2019/07/06 10:32:06;;;;;;;4.6;1.9;;;;;;;27.53;35.3916;956.8792;;;;
2019/07/06 10:34:31;;;;;;;6.4;2.4;;;;;;;27.78;34.95605;956.8079;;;;
2019/07/06 10:36:57;;;;;;;3.2;1.8;;;;;;;27.98;35.58203;956.7983;;;;
2019/07/06 10:39:22;;;;;;;5.6;2.2;;;;;;;27.85;34.44629;956.7825;;;;
2019/07/06 10:41:47;;;;;;;2.6;1.8;;;;;;;27.88;35.32324;956.7714;;;;
2019/07/06 10:44:12;;;;;;;3.9;1.6;;;;;;;27.97;35.4375;956.8044;;;;
2019/07/06 10:46:37;;;;;;;5;1.6;;;;;;;27.98;36.14453;956.7728;;;;
2019/07/06 10:49:02;;;;;;;2.9;1.9;;;;;;;28.04;35.33496;956.8077;;;;
2019/07/06 10:51:27;;;;;;;4.2;1.8;;;;;;;28.08;35.23047;956.7698;;;;
2019/07/06 10:53:52;;;;;;;4;2;;;;;;;28.1;35.00488;956.7;;;;
2019/07/06 10:56:17;;;;;;;4.9;2.1;;;;;;;28.23;34.95508;956.7294;;;;
2019/07/06 10:58:42;;;;;;;4.2;2;;;;;;;28.44;34.70703;956.6831;;;;
2019/07/06 11:01:08;;;;;;;4.3;1.8;;;;;;;28.66;33.39355;956.6726;;;;
2019/07/06 11:03:33;;;;;;;3.3;1.8;;;;;;;28.69;33.70801;956.6766;;;;
2019/07/06 11:05:58;;;;;;;3.4;1.8;;;;;;;28.74;34.0957;956.6348;;;;
2019/07/06 11:08:23;;;;;;;2.8;1.6;;;;;;;29.02;34.59668;956.6595;;;;
2019/07/06 11:10:48;;;;;;;2.7;1.6;;;;;;;28.94;34.42188;956.5908;;;;
2019/07/06 11:13:13;;;;;;;3.9;1.7;;;;;;;28.96;33.59473;956.6091;;;;
2019/07/06 11:15:38;;;;;;;3.8;1.6;;;;;;;28.83;33.21387;956.5995;;;;
2019/07/06 11:18:03;;;;;;;5;1.8;;;;;;;28.48;33.33203;956.6777;;;;
2019/07/06 11:20:28;;;;;;;6.2;1.9;;;;;;;28.39;33.69727;956.6353;;;;
2019/07/06 11:22:53;;;;;;;3.9;2;;;;;;;28.43;34.25098;956.5664;;;;
2019/07/06 11:25:18;;;;;;;4.4;1.8;;;;;;;28.41;34.10547;956.5145;;;;
2019/07/06 11:27:43;;;;;;;4.2;2;;;;;;;28.31;34.94922;956.4161;;;;
2019/07/06 11:30:09;;;;;;;4.8;1.9;;;;;;;28.31;34.79297;956.3769;;;;
2019/07/06 11:32:34;;;;;;;5.4;1.8;;;;;;;28.29;34.12109;956.4027;;;;
2019/07/06 11:34:59;;;;;;;6;1.9;;;;;;;28.37;34.59375;956.3842;;;;
2019/07/06 11:37:24;;;;;;;4.6;1.9;;;;;;;28.65;34.32813;956.3911;;;;
2019/07/06 11:39:49;;;;;;;3.7;1.9;;;;;;;28.8;34.55566;956.3976;;;;
2019/07/06 11:42:15;;;;;;;3.4;1.7;;;;;;;29.03;33.90137;956.3287;;;;
2019/07/06 11:44:40;;;;;;;4.6;1.9;;;;;;;29.12;33.67871;956.2816;;;;
2019/07/06 11:47:05;;;;;;;3.9;1.8;;;;;;;29.25;32.82422;956.278;;;;
2019/07/06 11:49:30;;;;;;;6.2;1.9;;;;;;;29.5;32.30273;956.2891;;;;
2019/07/06 11:51:55;;;;;;;3.7;1.6;;;;;;;29.39;32.58203;956.2841;;;;
2019/07/06 11:54:20;;;;;;;4.3;1.8;;;;;;;29.12;32.33496;956.2622;;;;
2019/07/06 11:56:45;;;;;;;4.8;1.7;;;;;;;29.32;33.09375;956.3114;;;;
2019/07/06 11:59:10;;;;;;;6;2;;;;;;;29.42;32.71777;956.2903;;;;
2019/07/06 12:01:36;;;;;;;4.1;2;;;;;;;29.22;33.71094;956.2562;;;;
2019/07/06 12:04:01;;;;;;;3.9;1.9;;;;;;;29.1;33.72559;956.1602;;;;
2019/07/06 12:06:26;;;;;;;6.3;1.9;;;;;;;29.02;34.02051;956.1005;;;;
2019/07/06 12:08:51;;;;;;;6.5;2;;;;;;;28.97;33.74023;956.1183;;;;
2019/07/06 12:11:16;;;;;;;5.3;1.9;;;;;;;28.92;34.27637;956.044;;;;
2019/07/06 12:13:41;;;;;;;4.7;1.9;;;;;;;28.89;34.05859;955.9723;;;;
2019/07/06 12:16:07;;;;;;;5.3;2.1;;;;;;;29.06;33.80664;955.9714;;;;
2019/07/06 12:18:32;;;;;;;3.4;1.8;;;;;;;29.08;34.68555;955.9189;;;;
2019/07/06 12:20:57;;;;;;;5;1.8;;;;;;;29.09;33.97754;955.9309;;;;
2019/07/06 12:23:22;;;;;;;5.7;2;;;;;;;28.98;33.64551;955.9003;;;;
2019/07/06 12:25:47;;;;;;;9.7;2.2;;;;;;;29.04;35.54492;955.8585;;;;
2019/07/06 12:28:12;;;;;;;4.8;1.8;;;;;;;29.3;33.26074;955.8506;;;;
2019/07/06 12:30:38;;;;;;;5.1;2.1;;;;;;;29.49;32.48145;955.8215;;;;
2019/07/06 12:33:03;;;;;;;3.5;1.8;;;;;;;29.67;32.12207;955.8553;;;;
2019/07/06 12:35:28;;;;;;;3.3;1.8;;;;;;;29.68;32.6875;955.7935;;;;
2019/07/06 12:37:53;;;;;;;3.7;1.8;;;;;;;29.51;32.7959;955.822;;;;
2019/07/06 12:40:18;;;;;;;6.1;1.9;;;;;;;29.36;32.26855;955.7599;;;;
2019/07/06 12:42:44;;;;;;;5.4;2.1;;;;;;;29.4;32.30762;955.6804;;;;
2019/07/06 12:45:09;;;;;;;4.5;1.8;;;;;;;29.4;33.02832;955.674;;;;
2019/07/06 12:47:34;;;;;;;4.9;2;;;;;;;29.5;33.02344;955.6615;;;;
2019/07/06 12:49:59;;;;;;;4.5;2;;;;;;;29.97;31.43457;955.7344;;;;
2019/07/06 12:52:24;;;;;;;3.7;1.8;;;;;;;29.86;32.02832;955.7011;;;;
2019/07/06 12:54:49;;;;;;;6;2;;;;;;;29.6;32.41797;955.6923;;;;
2019/07/06 12:57:14;;;;;;;2.7;1.8;;;;;;;29.31;33.39258;955.6599;;;;
2019/07/06 12:59:40;;;;;;;4.4;2;;;;;;;29.05;33.72266;955.685;;;;
2019/07/06 13:02:05;;;;;;;4.2;2.1;;;;;;;29.09;33.66602;955.6469;;;;
2019/07/06 13:04:30;;;;;;;4.8;1.9;;;;;;;29.18;34.04395;955.6739;;;;
2019/07/06 13:06:55;;;;;;;3.6;1.9;;;;;;;28.83;34.07715;955.639;;;;
2019/07/06 13:09:21;;;;;;;4.8;2.1;;;;;;;28.7;34.2959;955.6433;;;;
2019/07/06 13:11:46;;;;;;;3.6;2.1;;;;;;;28.72;34.2373;955.6549;;;;
2019/07/06 13:14:11;;;;;;;4;2.1;;;;;;;28.68;34.71387;955.6175;;;;
2019/07/06 13:16:36;;;;;;;6.8;2.2;;;;;;;28.81;33.95605;955.6679;;;;
2019/07/06 13:19:01;;;;;;;3;1.7;;;;;;;28.82;34.31738;955.5622;;;;
2019/07/06 13:21:26;;;;;;;4.2;1.9;;;;;;;29.03;33.88867;955.4841;;;;
2019/07/06 13:23:51;;;;;;;4.9;2.1;;;;;;;29.05;34.02246;955.5111;;;;
2019/07/06 13:26:16;;;;;;;4.4;2;;;;;;;29.11;33.90723;955.5386;;;;
2019/07/06 13:28:42;;;;;;;4.4;2.1;;;;;;;29.01;33.19141;955.498;;;;
2019/07/06 13:31:07;;;;;;;7.8;2.1;;;;;;;29.06;33.45898;955.4946;;;;
2019/07/06 13:33:32;;;;;;;6.5;1.8;;;;;;;29.16;33.51465;955.5073;;;;
2019/07/06 13:35:57;;;;;;;4.9;2.2;;;;;;;29.23;34.04785;955.4861;;;;
2019/07/06 13:38:22;;;;;;;4.7;2;;;;;;;29.21;33.84277;955.4959;;;;
2019/07/06 13:40:47;;;;;;;4.9;1.9;;;;;;;29.18;32.66309;955.4741;;;;
2019/07/06 13:43:12;;;;;;;6.2;2.1;;;;;;;29.01;32.51953;955.4718;;;;
2019/07/06 13:45:37;;;;;;;3.5;1.9;;;;;;;28.9;32.72754;955.4509;;;;
2019/07/06 13:48:03;;;;;;;5.3;1.9;;;;;;;28.72;33.31348;955.3459;;;;
2019/07/06 13:50:28;;;;;;;4.9;1.7;;;;;;;28.74;32.75195;955.3613;;;;
2019/07/06 13:52:53;;;;;;;2.8;1.9;;;;;;;28.67;32.09863;955.3152;;;;
2019/07/06 13:55:18;;;;;;;3.4;1.9;;;;;;;28.74;32.16406;955.2592;;;;
2019/07/06 13:57:43;;;;;;;4.1;1.8;;;;;;;28.67;32.19434;955.2224;;;;
2019/07/06 14:00:08;;;;;;;3.1;1.9;;;;;;;28.75;32.27246;955.2008;;;;
2019/07/06 14:02:34;;;;;;;4.5;2;;;;;;;28.71;31.66992;955.1735;;;;
2019/07/06 14:04:59;;;;;;;6.3;2.3;;;;;;;28.62;32.52734;955.241;;;;
2019/07/06 14:07:24;;;;;;;4.4;1.8;;;;;;;28.64;32.33691;955.264;;;;
2019/07/06 14:09:49;;;;;;;4;1.9;;;;;;;28.71;32.08984;955.2734;;;;
2019/07/06 14:12:14;;;;;;;3.8;1.9;;;;;;;28.88;32.61816;955.2497;;;;